sensor_id;sensor_type;location;lat;lon;timestamp;P1;durP1;ratioP1;P2;durP2;ratioP2
15681;SDS011;7941;50.966;6.978;2022-08-21T00:02:00;14.33;;;12.83;;
15681;SDS011;7941;50.966;6.978;2022-08-21T00:04:27;15.77;;;13.70;;
15681;SDS011;7941;50.966;6.978;2022-08-21T00:06:53;16.23;;;14.57;;
15681;SDS011;7941;50.966;6.978;2022-08-21T00:09:19;19.77;;;14.60;;
15681;SDS011;7941;50.966;6.978;2022-08-21T00:11:45;15.40;;;13.80;;
15681;SDS011;7941;50.966;6.978;2022-08-21T00:14:12;21.00;;;13.90;;
15681;SDS011;7941;50.966;6.978;2022-08-21T00:16:39;15.90;;;13.53;;
15681;SDS011;7941;50.966;6.978;2022-08-21T00:19:05;17.37;;;14.43;;
15681;SDS011;7941;50.966;6.978;2022-08-21T00:21:32;19.60;;;15.73;;
15681;SDS011;7941;50.966;6.978;2022-08-21T00:23:59;17.57;;;14.33;;
15681;SDS011;7941;50.966;6.978;2022-08-21T00:26:25;16.50;;;14.80;;
15681;SDS011;7941;50.966;6.978;2022-08-21T00:28:51;17.60;;;14.63;;
15681;SDS011;7941;50.966;6.978;2022-08-21T00:31:17;17.00;;;14.57;;
15681;SDS011;7941;50.966;6.978;2022-08-21T00:33:44;19.77;;;13.77;;
15681;SDS011;7941;50.966;6.978;2022-08-21T00:36:11;17.30;;;14.73;;
15681;SDS011;7941;50.966;6.978;2022-08-21T00:38:37;17.17;;;14.80;;
15681;SDS011;7941;50.966;6.978;2022-08-21T00:41:04;17.83;;;14.73;;
15681;SDS011;7941;50.966;6.978;2022-08-21T00:43:32;16.10;;;13.83;;
15681;SDS011;7941;50.966;6.978;2022-08-21T00:45:59;16.43;;;13.17;;
15681;SDS011;7941;50.966;6.978;2022-08-21T00:48:25;16.60;;;13.10;;
15681;SDS011;7941;50.966;6.978;2022-08-21T00:50:55;14.97;;;13.50;;
15681;SDS011;7941;50.966;6.978;2022-08-21T00:53:21;19.30;;;16.37;;
15681;SDS011;7941;50.966;6.978;2022-08-21T00:55:47;18.97;;;16.00;;
15681;SDS011;7941;50.966;6.978;2022-08-21T00:58:14;18.67;;;15.50;;
15681;SDS011;7941;50.966;6.978;2022-08-21T01:00:41;19.77;;;15.10;;
15681;SDS011;7941;50.966;6.978;2022-08-21T01:03:10;17.47;;;15.57;;
15681;SDS011;7941;50.966;6.978;2022-08-21T01:05:36;22.03;;;19.00;;
15681;SDS011;7941;50.966;6.978;2022-08-21T01:08:03;20.20;;;18.10;;
15681;SDS011;7941;50.966;6.978;2022-08-21T01:10:29;21.17;;;18.90;;
15681;SDS011;7941;50.966;6.978;2022-08-21T01:12:56;21.83;;;18.00;;
15681;SDS011;7941;50.966;6.978;2022-08-21T01:15:24;19.50;;;17.43;;
15681;SDS011;7941;50.966;6.978;2022-08-21T01:17:52;19.47;;;16.90;;
15681;SDS011;7941;50.966;6.978;2022-08-21T01:20:18;23.90;;;18.10;;
15681;SDS011;7941;50.966;6.978;2022-08-21T01:22:44;21.17;;;18.40;;
15681;SDS011;7941;50.966;6.978;2022-08-21T01:25:12;18.70;;;16.73;;
15681;SDS011;7941;50.966;6.978;2022-08-21T01:27:38;20.73;;;18.03;;
15681;SDS011;7941;50.966;6.978;2022-08-21T01:30:09;18.40;;;16.50;;
15681;SDS011;7941;50.966;6.978;2022-08-21T01:32:35;20.77;;;17.67;;
15681;SDS011;7941;50.966;6.978;2022-08-21T01:35:02;20.23;;;18.23;;
15681;SDS011;7941;50.966;6.978;2022-08-21T01:37:29;22.70;;;19.47;;
15681;SDS011;7941;50.966;6.978;2022-08-21T01:39:55;21.80;;;18.40;;
15681;SDS011;7941;50.966;6.978;2022-08-21T01:42:21;21.90;;;19.50;;
15681;SDS011;7941;50.966;6.978;2022-08-21T01:44:47;21.20;;;19.10;;
15681;SDS011;7941;50.966;6.978;2022-08-21T01:47:14;21.27;;;19.13;;
15681;SDS011;7941;50.966;6.978;2022-08-21T01:49:40;20.57;;;18.10;;
15681;SDS011;7941;50.966;6.978;2022-08-21T01:52:07;21.60;;;19.53;;
15681;SDS011;7941;50.966;6.978;2022-08-21T01:54:33;19.57;;;17.63;;
15681;SDS011;7941;50.966;6.978;2022-08-21T01:57:00;19.77;;;16.07;;
15681;SDS011;7941;50.966;6.978;2022-08-21T01:59:26;17.57;;;16.00;;
15681;SDS011;7941;50.966;6.978;2022-08-21T02:01:52;20.87;;;17.37;;
15681;SDS011;7941;50.966;6.978;2022-08-21T02:04:22;19.20;;;16.97;;
15681;SDS011;7941;50.966;6.978;2022-08-21T02:06:48;18.77;;;16.67;;
15681;SDS011;7941;50.966;6.978;2022-08-21T02:09:15;22.00;;;17.00;;
15681;SDS011;7941;50.966;6.978;2022-08-21T02:11:41;20.77;;;18.37;;
15681;SDS011;7941;50.966;6.978;2022-08-21T02:14:08;20.57;;;18.33;;
15681;SDS011;7941;50.966;6.978;2022-08-21T02:16:35;21.70;;;17.67;;
15681;SDS011;7941;50.966;6.978;2022-08-21T02:19:01;19.00;;;17.20;;
15681;SDS011;7941;50.966;6.978;2022-08-21T02:21:27;22.73;;;17.77;;
15681;SDS011;7941;50.966;6.978;2022-08-21T02:23:53;20.93;;;18.83;;
15681;SDS011;7941;50.966;6.978;2022-08-21T02:26:19;20.23;;;18.27;;
15681;SDS011;7941;50.966;6.978;2022-08-21T02:28:45;21.10;;;19.00;;
15681;SDS011;7941;50.966;6.978;2022-08-21T02:31:12;18.80;;;17.10;;
15681;SDS011;7941;50.966;6.978;2022-08-21T02:33:38;21.70;;;17.30;;
15681;SDS011;7941;50.966;6.978;2022-08-21T02:36:04;18.77;;;16.97;;
15681;SDS011;7941;50.966;6.978;2022-08-21T02:38:31;19.00;;;16.60;;
15681;SDS011;7941;50.966;6.978;2022-08-21T02:40:58;18.53;;;16.30;;
15681;SDS011;7941;50.966;6.978;2022-08-21T02:43:25;21.73;;;15.27;;
15681;SDS011;7941;50.966;6.978;2022-08-21T02:45:52;17.97;;;16.17;;
15681;SDS011;7941;50.966;6.978;2022-08-21T02:48:20;17.80;;;15.83;;
15681;SDS011;7941;50.966;6.978;2022-08-21T02:50:47;18.47;;;16.60;;
15681;SDS011;7941;50.966;6.978;2022-08-21T02:53:15;19.33;;;17.17;;
15681;SDS011;7941;50.966;6.978;2022-08-21T02:55:42;19.83;;;17.20;;
15681;SDS011;7941;50.966;6.978;2022-08-21T02:58:08;17.73;;;16.07;;
15681;SDS011;7941;50.966;6.978;2022-08-21T03:00:35;19.77;;;16.40;;
15681;SDS011;7941;50.966;6.978;2022-08-21T03:03:02;17.43;;;15.73;;
15681;SDS011;7941;50.966;6.978;2022-08-21T03:05:29;18.90;;;16.57;;
15681;SDS011;7941;50.966;6.978;2022-08-21T03:07:58;22.77;;;17.60;;
15681;SDS011;7941;50.966;6.978;2022-08-21T03:10:25;19.43;;;16.37;;
15681;SDS011;7941;50.966;6.978;2022-08-21T03:12:52;18.17;;;16.27;;
15681;SDS011;7941;50.966;6.978;2022-08-21T03:15:20;18.83;;;16.50;;
15681;SDS011;7941;50.966;6.978;2022-08-21T03:17:47;17.90;;;16.23;;
15681;SDS011;7941;50.966;6.978;2022-08-21T03:20:14;18.47;;;16.40;;
15681;SDS011;7941;50.966;6.978;2022-08-21T03:22:40;18.10;;;15.80;;
15681;SDS011;7941;50.966;6.978;2022-08-21T03:25:07;20.90;;;16.30;;
15681;SDS011;7941;50.966;6.978;2022-08-21T03:27:33;20.00;;;15.73;;
15681;SDS011;7941;50.966;6.978;2022-08-21T03:30:00;20.27;;;17.43;;
15681;SDS011;7941;50.966;6.978;2022-08-21T03:32:26;17.93;;;16.03;;
15681;SDS011;7941;50.966;6.978;2022-08-21T03:34:54;18.57;;;15.80;;
15681;SDS011;7941;50.966;6.978;2022-08-21T03:37:20;16.70;;;14.90;;
15681;SDS011;7941;50.966;6.978;2022-08-21T03:39:46;16.57;;;14.83;;
15681;SDS011;7941;50.966;6.978;2022-08-21T03:42:12;16.13;;;14.40;;
15681;SDS011;7941;50.966;6.978;2022-08-21T03:44:38;18.23;;;15.17;;
15681;SDS011;7941;50.966;6.978;2022-08-21T03:47:04;15.83;;;14.13;;
15681;SDS011;7941;50.966;6.978;2022-08-21T03:49:31;18.70;;;15.53;;
15681;SDS011;7941;50.966;6.978;2022-08-21T03:51:58;16.40;;;14.67;;
15681;SDS011;7941;50.966;6.978;2022-08-21T03:54:24;17.30;;;15.70;;
15681;SDS011;7941;50.966;6.978;2022-08-21T03:56:50;17.47;;;14.50;;
15681;SDS011;7941;50.966;6.978;2022-08-21T03:59:17;17.43;;;15.30;;
15681;SDS011;7941;50.966;6.978;2022-08-21T04:01:56;17.30;;;15.43;;
15681;SDS011;7941;50.966;6.978;2022-08-21T04:04:23;18.50;;;16.27;;
15681;SDS011;7941;50.966;6.978;2022-08-21T04:06:50;17.30;;;14.83;;
15681;SDS011;7941;50.966;6.978;2022-08-21T04:09:17;19.97;;;16.47;;
15681;SDS011;7941;50.966;6.978;2022-08-21T04:11:43;18.03;;;14.90;;
15681;SDS011;7941;50.966;6.978;2022-08-21T04:14:10;19.17;;;16.03;;
15681;SDS011;7941;50.966;6.978;2022-08-21T04:16:36;16.37;;;14.77;;
15681;SDS011;7941;50.966;6.978;2022-08-21T04:19:02;20.23;;;15.40;;
15681;SDS011;7941;50.966;6.978;2022-08-21T04:21:29;19.17;;;15.10;;
15681;SDS011;7941;50.966;6.978;2022-08-21T04:23:55;17.50;;;15.70;;
15681;SDS011;7941;50.966;6.978;2022-08-21T04:26:21;17.17;;;15.37;;
15681;SDS011;7941;50.966;6.978;2022-08-21T04:28:48;20.53;;;14.87;;
15681;SDS011;7941;50.966;6.978;2022-08-21T04:31:14;18.87;;;15.80;;
15681;SDS011;7941;50.966;6.978;2022-08-21T04:33:40;18.23;;;16.33;;
15681;SDS011;7941;50.966;6.978;2022-08-21T04:36:06;20.93;;;17.23;;
15681;SDS011;7941;50.966;6.978;2022-08-21T04:38:33;20.40;;;17.33;;
15681;SDS011;7941;50.966;6.978;2022-08-21T04:40:59;20.87;;;16.10;;
15681;SDS011;7941;50.966;6.978;2022-08-21T04:43:25;19.37;;;17.10;;
15681;SDS011;7941;50.966;6.978;2022-08-21T04:45:51;18.53;;;16.67;;
15681;SDS011;7941;50.966;6.978;2022-08-21T04:48:19;19.27;;;16.07;;
15681;SDS011;7941;50.966;6.978;2022-08-21T04:53:16;18.00;;;16.20;;
15681;SDS011;7941;50.966;6.978;2022-08-21T04:55:44;17.87;;;16.07;;
15681;SDS011;7941;50.966;6.978;2022-08-21T04:58:11;18.60;;;15.60;;
15681;SDS011;7941;50.966;6.978;2022-08-21T05:00:38;23.20;;;15.17;;
15681;SDS011;7941;50.966;6.978;2022-08-21T05:03:04;15.90;;;14.20;;
15681;SDS011;7941;50.966;6.978;2022-08-21T05:05:32;17.97;;;15.13;;
15681;SDS011;7941;50.966;6.978;2022-08-21T05:07:59;18.63;;;14.87;;
15681;SDS011;7941;50.966;6.978;2022-08-21T05:10:27;18.03;;;13.90;;
15681;SDS011;7941;50.966;6.978;2022-08-21T05:12:53;16.87;;;14.00;;
15681;SDS011;7941;50.966;6.978;2022-08-21T05:15:19;16.13;;;14.37;;
15681;SDS011;7941;50.966;6.978;2022-08-21T05:17:46;15.87;;;13.97;;
15681;SDS011;7941;50.966;6.978;2022-08-21T05:20:12;17.13;;;14.50;;
15681;SDS011;7941;50.966;6.978;2022-08-21T05:22:39;17.13;;;14.77;;
15681;SDS011;7941;50.966;6.978;2022-08-21T05:25:06;14.77;;;13.07;;
15681;SDS011;7941;50.966;6.978;2022-08-21T05:27:33;18.43;;;14.80;;
15681;SDS011;7941;50.966;6.978;2022-08-21T05:29:59;14.47;;;12.97;;
15681;SDS011;7941;50.966;6.978;2022-08-21T05:32:25;15.53;;;13.60;;
15681;SDS011;7941;50.966;6.978;2022-08-21T05:34:53;15.77;;;13.93;;
15681;SDS011;7941;50.966;6.978;2022-08-21T05:37:20;16.67;;;13.13;;
15681;SDS011;7941;50.966;6.978;2022-08-21T05:39:46;15.93;;;13.87;;
15681;SDS011;7941;50.966;6.978;2022-08-21T05:42:12;16.27;;;13.63;;
15681;SDS011;7941;50.966;6.978;2022-08-21T05:44:38;16.77;;;13.20;;
15681;SDS011;7941;50.966;6.978;2022-08-21T05:47:05;15.27;;;13.67;;
15681;SDS011;7941;50.966;6.978;2022-08-21T05:49:31;16.00;;;14.17;;
15681;SDS011;7941;50.966;6.978;2022-08-21T05:51:57;16.17;;;13.27;;
15681;SDS011;7941;50.966;6.978;2022-08-21T05:54:23;15.17;;;13.37;;
15681;SDS011;7941;50.966;6.978;2022-08-21T05:56:50;14.47;;;13.10;;
15681;SDS011;7941;50.966;6.978;2022-08-21T05:59:16;16.50;;;14.33;;
15681;SDS011;7941;50.966;6.978;2022-08-21T06:01:43;15.33;;;13.70;;
15681;SDS011;7941;50.966;6.978;2022-08-21T06:04:10;15.30;;;13.37;;
15681;SDS011;7941;50.966;6.978;2022-08-21T06:06:36;16.73;;;13.47;;
15681;SDS011;7941;50.966;6.978;2022-08-21T06:09:03;14.77;;;13.27;;
15681;SDS011;7941;50.966;6.978;2022-08-21T06:11:29;15.30;;;13.57;;
15681;SDS011;7941;50.966;6.978;2022-08-21T06:13:55;14.43;;;12.90;;
15681;SDS011;7941;50.966;6.978;2022-08-21T06:16:21;16.90;;;13.60;;
15681;SDS011;7941;50.966;6.978;2022-08-21T06:18:48;14.37;;;12.87;;
15681;SDS011;7941;50.966;6.978;2022-08-21T06:21:14;16.80;;;13.50;;
15681;SDS011;7941;50.966;6.978;2022-08-21T06:23:40;14.60;;;12.23;;
15681;SDS011;7941;50.966;6.978;2022-08-21T06:26:07;14.80;;;13.30;;
15681;SDS011;7941;50.966;6.978;2022-08-21T06:28:33;13.37;;;12.07;;
15681;SDS011;7941;50.966;6.978;2022-08-21T06:31:00;16.73;;;13.90;;
15681;SDS011;7941;50.966;6.978;2022-08-21T06:33:26;16.10;;;11.70;;
15681;SDS011;7941;50.966;6.978;2022-08-21T06:35:52;15.57;;;12.30;;
15681;SDS011;7941;50.966;6.978;2022-08-21T06:38:18;12.93;;;11.67;;
15681;SDS011;7941;50.966;6.978;2022-08-21T06:40:44;13.17;;;11.97;;
15681;SDS011;7941;50.966;6.978;2022-08-21T06:43:11;13.53;;;11.93;;
15681;SDS011;7941;50.966;6.978;2022-08-21T06:45:37;14.17;;;11.13;;
15681;SDS011;7941;50.966;6.978;2022-08-21T06:48:04;13.33;;;11.63;;
15681;SDS011;7941;50.966;6.978;2022-08-21T06:50:31;15.67;;;12.77;;
15681;SDS011;7941;50.966;6.978;2022-08-21T06:53:02;16.70;;;12.60;;
15681;SDS011;7941;50.966;6.978;2022-08-21T06:55:29;14.90;;;12.27;;
15681;SDS011;7941;50.966;6.978;2022-08-21T06:57:55;13.70;;;12.40;;
15681;SDS011;7941;50.966;6.978;2022-08-21T07:00:21;13.40;;;12.07;;
15681;SDS011;7941;50.966;6.978;2022-08-21T07:02:48;13.97;;;11.73;;
15681;SDS011;7941;50.966;6.978;2022-08-21T07:05:14;17.20;;;11.97;;
15681;SDS011;7941;50.966;6.978;2022-08-21T07:07:40;12.87;;;10.73;;
15681;SDS011;7941;50.966;6.978;2022-08-21T07:10:06;14.87;;;11.27;;
15681;SDS011;7941;50.966;6.978;2022-08-21T07:12:32;11.20;;;9.57;;
15681;SDS011;7941;50.966;6.978;2022-08-21T07:14:59;12.87;;;11.23;;
15681;SDS011;7941;50.966;6.978;2022-08-21T07:17:25;11.70;;;10.30;;
15681;SDS011;7941;50.966;6.978;2022-08-21T07:19:51;18.80;;;10.53;;
15681;SDS011;7941;50.966;6.978;2022-08-21T07:22:18;10.50;;;8.37;;
15681;SDS011;7941;50.966;6.978;2022-08-21T07:24:45;12.97;;;8.97;;
15681;SDS011;7941;50.966;6.978;2022-08-21T07:27:11;8.47;;;5.13;;
15681;SDS011;7941;50.966;6.978;2022-08-21T07:29:37;11.43;;;5.10;;
15681;SDS011;7941;50.966;6.978;2022-08-21T07:32:03;10.00;;;4.20;;
15681;SDS011;7941;50.966;6.978;2022-08-21T07:34:30;10.50;;;4.57;;
15681;SDS011;7941;50.966;6.978;2022-08-21T07:36:56;7.53;;;3.80;;
15681;SDS011;7941;50.966;6.978;2022-08-21T07:39:24;7.73;;;3.80;;
15681;SDS011;7941;50.966;6.978;2022-08-21T07:41:51;9.03;;;3.63;;
15681;SDS011;7941;50.966;6.978;2022-08-21T07:44:17;4.60;;;2.80;;
15681;SDS011;7941;50.966;6.978;2022-08-21T07:46:43;5.83;;;3.00;;
15681;SDS011;7941;50.966;6.978;2022-08-21T07:49:09;6.33;;;3.17;;
15681;SDS011;7941;50.966;6.978;2022-08-21T07:51:36;7.13;;;3.77;;
15681;SDS011;7941;50.966;6.978;2022-08-21T07:54:02;6.93;;;2.97;;
15681;SDS011;7941;50.966;6.978;2022-08-21T07:56:29;6.53;;;3.37;;
15681;SDS011;7941;50.966;6.978;2022-08-21T07:58:56;7.20;;;4.07;;
15681;SDS011;7941;50.966;6.978;2022-08-21T08:01:23;8.17;;;2.97;;
15681;SDS011;7941;50.966;6.978;2022-08-21T08:03:49;8.90;;;3.40;;
15681;SDS011;7941;50.966;6.978;2022-08-21T08:06:15;6.07;;;3.33;;
15681;SDS011;7941;50.966;6.978;2022-08-21T08:08:43;8.37;;;3.23;;
15681;SDS011;7941;50.966;6.978;2022-08-21T08:11:10;5.50;;;2.87;;
15681;SDS011;7941;50.966;6.978;2022-08-21T08:13:40;9.93;;;3.50;;
15681;SDS011;7941;50.966;6.978;2022-08-21T08:16:06;7.33;;;3.23;;
15681;SDS011;7941;50.966;6.978;2022-08-21T08:18:32;6.27;;;3.17;;
15681;SDS011;7941;50.966;6.978;2022-08-21T08:20:59;9.27;;;3.33;;
15681;SDS011;7941;50.966;6.978;2022-08-21T08:23:25;6.53;;;3.07;;
15681;SDS011;7941;50.966;6.978;2022-08-21T08:25:52;5.87;;;3.23;;
15681;SDS011;7941;50.966;6.978;2022-08-21T08:28:18;8.43;;;2.60;;
15681;SDS011;7941;50.966;6.978;2022-08-21T08:30:45;7.70;;;3.27;;
15681;SDS011;7941;50.966;6.978;2022-08-21T08:33:12;6.50;;;3.10;;
15681;SDS011;7941;50.966;6.978;2022-08-21T08:35:38;10.20;;;3.77;;
15681;SDS011;7941;50.966;6.978;2022-08-21T08:38:05;11.73;;;4.60;;
15681;SDS011;7941;50.966;6.978;2022-08-21T08:40:46;8.47;;;2.77;;
15681;SDS011;7941;50.966;6.978;2022-08-21T08:43:13;6.40;;;2.77;;
15681;SDS011;7941;50.966;6.978;2022-08-21T08:45:40;6.67;;;2.50;;
15681;SDS011;7941;50.966;6.978;2022-08-21T08:48:09;9.10;;;3.37;;
15681;SDS011;7941;50.966;6.978;2022-08-21T08:53:04;6.63;;;2.90;;
15681;SDS011;7941;50.966;6.978;2022-08-21T08:55:36;8.33;;;2.70;;
15681;SDS011;7941;50.966;6.978;2022-08-21T08:58:03;6.37;;;2.73;;
15681;SDS011;7941;50.966;6.978;2022-08-21T09:00:29;7.07;;;2.87;;
15681;SDS011;7941;50.966;6.978;2022-08-21T09:02:57;8.63;;;2.50;;
15681;SDS011;7941;50.966;6.978;2022-08-21T09:05:26;7.40;;;2.77;;
15681;SDS011;7941;50.966;6.978;2022-08-21T09:10:21;8.67;;;2.90;;
15681;SDS011;7941;50.966;6.978;2022-08-21T09:15:37;8.63;;;3.00;;
15681;SDS011;7941;50.966;6.978;2022-08-21T09:23:47;7.00;;;2.53;;
15681;SDS011;7941;50.966;6.978;2022-08-21T09:26:20;11.23;;;2.63;;
15681;SDS011;7941;50.966;6.978;2022-08-21T09:28:51;5.63;;;2.20;;
15681;SDS011;7941;50.966;6.978;2022-08-21T09:31:22;6.80;;;2.03;;
15681;SDS011;7941;50.966;6.978;2022-08-21T09:33:48;7.37;;;2.67;;
15681;SDS011;7941;50.966;6.978;2022-08-21T09:36:33;6.97;;;2.93;;
15681;SDS011;7941;50.966;6.978;2022-08-21T09:38:59;6.67;;;2.83;;
15681;SDS011;7941;50.966;6.978;2022-08-21T09:41:27;5.77;;;2.37;;
15681;SDS011;7941;50.966;6.978;2022-08-21T09:43:53;5.70;;;2.30;;
15681;SDS011;7941;50.966;6.978;2022-08-21T09:46:21;7.90;;;2.47;;
15681;SDS011;7941;50.966;6.978;2022-08-21T09:48:48;6.67;;;2.60;;
15681;SDS011;7941;50.966;6.978;2022-08-21T09:51:16;7.60;;;3.53;;
15681;SDS011;7941;50.966;6.978;2022-08-21T09:53:53;9.43;;;2.77;;
15681;SDS011;7941;50.966;6.978;2022-08-21T10:04:43;6.37;;;2.57;;
15681;SDS011;7941;50.966;6.978;2022-08-21T10:07:15;9.10;;;2.63;;
15681;SDS011;7941;50.966;6.978;2022-08-21T10:09:41;6.47;;;2.40;;
15681;SDS011;7941;50.966;6.978;2022-08-21T10:12:21;8.73;;;2.57;;
15681;SDS011;7941;50.966;6.978;2022-08-21T10:24:43;6.33;;;2.63;;
15681;SDS011;7941;50.966;6.978;2022-08-21T10:27:37;6.37;;;2.33;;
15681;SDS011;7941;50.966;6.978;2022-08-21T10:37:42;4.63;;;2.27;;
15681;SDS011;7941;50.966;6.978;2022-08-21T10:48:08;4.20;;;2.20;;
15681;SDS011;7941;50.966;6.978;2022-08-21T10:55:33;5.80;;;2.50;;
15681;SDS011;7941;50.966;6.978;2022-08-21T10:58:08;7.47;;;2.40;;
15681;SDS011;7941;50.966;6.978;2022-08-21T11:00:46;4.63;;;2.30;;
15681;SDS011;7941;50.966;6.978;2022-08-21T11:05:50;6.50;;;2.00;;
15681;SDS011;7941;50.966;6.978;2022-08-21T11:08:31;4.73;;;2.20;;
15681;SDS011;7941;50.966;6.978;2022-08-21T11:11:08;4.63;;;1.97;;
15681;SDS011;7941;50.966;6.978;2022-08-21T11:13:43;5.82;;;2.33;;
15681;SDS011;7941;50.966;6.978;2022-08-21T11:18:57;5.90;;;2.07;;
15681;SDS011;7941;50.966;6.978;2022-08-21T11:21:37;10.07;;;3.83;;
15681;SDS011;7941;50.966;6.978;2022-08-21T11:24:12;4.17;;;2.00;;
15681;SDS011;7941;50.966;6.978;2022-08-21T11:29:17;4.03;;;1.80;;
15681;SDS011;7941;50.966;6.978;2022-08-21T11:31:52;5.73;;;2.17;;
15681;SDS011;7941;50.966;6.978;2022-08-21T11:34:45;8.07;;;2.57;;
15681;SDS011;7941;50.966;6.978;2022-08-21T11:39:58;4.33;;;2.10;;
15681;SDS011;7941;50.966;6.978;2022-08-21T11:52:42;5.37;;;1.60;;
15681;SDS011;7941;50.966;6.978;2022-08-21T11:55:18;4.30;;;1.97;;
15681;SDS011;7941;50.966;6.978;2022-08-21T12:00:13;4.50;;;1.97;;
15681;SDS011;7941;50.966;6.978;2022-08-21T12:02:44;4.43;;;2.03;;
15681;SDS011;7941;50.966;6.978;2022-08-21T12:05:12;3.80;;;1.88;;
15681;SDS011;7941;50.966;6.978;2022-08-21T12:07:48;4.55;;;2.00;;
15681;SDS011;7941;50.966;6.978;2022-08-21T12:10:16;4.93;;;1.67;;
15681;SDS011;7941;50.966;6.978;2022-08-21T12:12:43;4.83;;;1.83;;
15681;SDS011;7941;50.966;6.978;2022-08-21T12:23:16;4.83;;;2.20;;
15681;SDS011;7941;50.966;6.978;2022-08-21T12:25:43;2.50;;;1.40;;
15681;SDS011;7941;50.966;6.978;2022-08-21T12:28:11;3.77;;;1.80;;
15681;SDS011;7941;50.966;6.978;2022-08-21T12:30:39;4.73;;;1.67;;
15681;SDS011;7941;50.966;6.978;2022-08-21T12:33:17;5.57;;;1.60;;
15681;SDS011;7941;50.966;6.978;2022-08-21T12:35:44;3.63;;;1.80;;
15681;SDS011;7941;50.966;6.978;2022-08-21T12:38:15;5.40;;;1.60;;
15681;SDS011;7941;50.966;6.978;2022-08-21T12:40:46;5.33;;;2.00;;
15681;SDS011;7941;50.966;6.978;2022-08-21T12:43:14;4.87;;;1.90;;
15681;SDS011;7941;50.966;6.978;2022-08-21T12:45:42;5.70;;;1.90;;
15681;SDS011;7941;50.966;6.978;2022-08-21T12:48:10;7.97;;;2.60;;
15681;SDS011;7941;50.966;6.978;2022-08-21T12:50:40;3.57;;;1.80;;
15681;SDS011;7941;50.966;6.978;2022-08-21T12:55:40;7.90;;;2.23;;
15681;SDS011;7941;50.966;6.978;2022-08-21T12:58:06;4.77;;;4.00;;
15681;SDS011;7941;50.966;6.978;2022-08-21T13:00:44;4.00;;;2.03;;
15681;SDS011;7941;50.966;6.978;2022-08-21T13:03:13;5.20;;;2.10;;
15681;SDS011;7941;50.966;6.978;2022-08-21T13:05:40;6.13;;;2.20;;
15681;SDS011;7941;50.966;6.978;2022-08-21T13:08:07;3.73;;;2.00;;
15681;SDS011;7941;50.966;6.978;2022-08-21T13:10:34;5.10;;;2.17;;
15681;SDS011;7941;50.966;6.978;2022-08-21T13:13:03;3.17;;;1.77;;
15681;SDS011;7941;50.966;6.978;2022-08-21T13:15:32;4.70;;;1.90;;
15681;SDS011;7941;50.966;6.978;2022-08-21T13:17:59;6.20;;;1.87;;
15681;SDS011;7941;50.966;6.978;2022-08-21T13:20:30;6.20;;;1.93;;
15681;SDS011;7941;50.966;6.978;2022-08-21T13:22:56;5.63;;;2.10;;
15681;SDS011;7941;50.966;6.978;2022-08-21T13:25:27;4.63;;;2.10;;
15681;SDS011;7941;50.966;6.978;2022-08-21T13:27:59;4.57;;;2.20;;
15681;SDS011;7941;50.966;6.978;2022-08-21T13:30:25;5.63;;;2.33;;
15681;SDS011;7941;50.966;6.978;2022-08-21T13:32:52;5.37;;;1.90;;
15681;SDS011;7941;50.966;6.978;2022-08-21T13:35:21;3.53;;;2.07;;
15681;SDS011;7941;50.966;6.978;2022-08-21T13:37:48;4.87;;;2.10;;
15681;SDS011;7941;50.966;6.978;2022-08-21T13:40:20;5.33;;;2.07;;
15681;SDS011;7941;50.966;6.978;2022-08-21T13:42:47;4.93;;;2.30;;
15681;SDS011;7941;50.966;6.978;2022-08-21T13:45:25;5.23;;;2.30;;
15681;SDS011;7941;50.966;6.978;2022-08-21T13:47:51;5.70;;;2.00;;
15681;SDS011;7941;50.966;6.978;2022-08-21T13:50:18;3.53;;;1.77;;
15681;SDS011;7941;50.966;6.978;2022-08-21T13:52:56;5.05;;;2.10;;
15681;SDS011;7941;50.966;6.978;2022-08-21T13:55:23;4.50;;;1.80;;
15681;SDS011;7941;50.966;6.978;2022-08-21T13:57:58;4.07;;;2.00;;
15681;SDS011;7941;50.966;6.978;2022-08-21T14:00:28;7.47;;;2.07;;
15681;SDS011;7941;50.966;6.978;2022-08-21T14:02:59;4.67;;;2.07;;
15681;SDS011;7941;50.966;6.978;2022-08-21T14:05:27;3.00;;;2.00;;
15681;SDS011;7941;50.966;6.978;2022-08-21T14:10:29;4.77;;;2.17;;
15681;SDS011;7941;50.966;6.978;2022-08-21T14:13:00;4.00;;;1.90;;
15681;SDS011;7941;50.966;6.978;2022-08-21T14:15:28;5.03;;;1.80;;
15681;SDS011;7941;50.966;6.978;2022-08-21T14:17:54;6.53;;;2.30;;
15681;SDS011;7941;50.966;6.978;2022-08-21T14:20:29;5.43;;;2.10;;
15681;SDS011;7941;50.966;6.978;2022-08-21T14:22:56;5.17;;;2.30;;
15681;SDS011;7941;50.966;6.978;2022-08-21T14:32:53;4.60;;;1.70;;
15681;SDS011;7941;50.966;6.978;2022-08-21T14:35:19;2.53;;;1.43;;
15681;SDS011;7941;50.966;6.978;2022-08-21T14:37:46;4.87;;;1.87;;
15681;SDS011;7941;50.966;6.978;2022-08-21T14:40:15;2.80;;;1.70;;
15681;SDS011;7941;50.966;6.978;2022-08-21T14:42:42;4.00;;;2.10;;
15681;SDS011;7941;50.966;6.978;2022-08-21T14:45:20;4.27;;;1.73;;
15681;SDS011;7941;50.966;6.978;2022-08-21T14:47:48;6.17;;;1.97;;
15681;SDS011;7941;50.966;6.978;2022-08-21T14:50:14;3.67;;;1.70;;
15681;SDS011;7941;50.966;6.978;2022-08-21T14:52:40;3.35;;;1.80;;
15681;SDS011;7941;50.966;6.978;2022-08-21T14:55:08;5.10;;;2.10;;
15681;SDS011;7941;50.966;6.978;2022-08-21T14:57:41;5.43;;;2.10;;
15681;SDS011;7941;50.966;6.978;2022-08-21T15:00:09;3.50;;;1.93;;
15681;SDS011;7941;50.966;6.978;2022-08-21T15:02:36;4.87;;;2.67;;
15681;SDS011;7941;50.966;6.978;2022-08-21T15:05:02;3.70;;;1.90;;
15681;SDS011;7941;50.966;6.978;2022-08-21T15:07:29;4.23;;;1.77;;
15681;SDS011;7941;50.966;6.978;2022-08-21T15:09:55;2.97;;;1.40;;
15681;SDS011;7941;50.966;6.978;2022-08-21T15:12:21;4.10;;;1.57;;
15681;SDS011;7941;50.966;6.978;2022-08-21T15:14:47;2.77;;;1.67;;
15681;SDS011;7941;50.966;6.978;2022-08-21T15:17:13;4.47;;;1.90;;
15681;SDS011;7941;50.966;6.978;2022-08-21T15:19:40;6.27;;;2.33;;
15681;SDS011;7941;50.966;6.978;2022-08-21T15:22:06;3.70;;;2.00;;
15681;SDS011;7941;50.966;6.978;2022-08-21T15:24:32;4.07;;;1.97;;
15681;SDS011;7941;50.966;6.978;2022-08-21T15:26:59;2.67;;;2.00;;
15681;SDS011;7941;50.966;6.978;2022-08-21T15:29:26;3.63;;;1.50;;
15681;SDS011;7941;50.966;6.978;2022-08-21T15:31:53;2.97;;;2.10;;
15681;SDS011;7941;50.966;6.978;2022-08-21T15:34:20;3.17;;;1.60;;
15681;SDS011;7941;50.966;6.978;2022-08-21T15:36:46;3.87;;;1.57;;
15681;SDS011;7941;50.966;6.978;2022-08-21T15:39:13;3.73;;;1.77;;
15681;SDS011;7941;50.966;6.978;2022-08-21T15:41:39;3.83;;;1.67;;
15681;SDS011;7941;50.966;6.978;2022-08-21T15:44:05;2.73;;;1.83;;
15681;SDS011;7941;50.966;6.978;2022-08-21T15:46:31;3.17;;;1.83;;
15681;SDS011;7941;50.966;6.978;2022-08-21T15:48:58;5.13;;;1.83;;
15681;SDS011;7941;50.966;6.978;2022-08-21T15:51:23;3.47;;;1.77;;
15681;SDS011;7941;50.966;6.978;2022-08-21T15:53:50;7.20;;;1.90;;
15681;SDS011;7941;50.966;6.978;2022-08-21T15:56:26;7.03;;;1.93;;
15681;SDS011;7941;50.966;6.978;2022-08-21T15:58:53;2.57;;;1.70;;
15681;SDS011;7941;50.966;6.978;2022-08-21T16:01:19;2.67;;;1.80;;
15681;SDS011;7941;50.966;6.978;2022-08-21T16:03:47;7.57;;;2.27;;
15681;SDS011;7941;50.966;6.978;2022-08-21T16:06:14;5.10;;;1.60;;
15681;SDS011;7941;50.966;6.978;2022-08-21T16:08:40;4.00;;;1.90;;
15681;SDS011;7941;50.966;6.978;2022-08-21T16:11:06;3.37;;;1.80;;
15681;SDS011;7941;50.966;6.978;2022-08-21T16:13:36;2.97;;;2.10;;
15681;SDS011;7941;50.966;6.978;2022-08-21T16:16:03;8.40;;;6.50;;
15681;SDS011;7941;50.966;6.978;2022-08-21T16:18:30;5.67;;;1.90;;
15681;SDS011;7941;50.966;6.978;2022-08-21T16:20:56;4.57;;;2.20;;
15681;SDS011;7941;50.966;6.978;2022-08-21T16:23:22;6.43;;;1.90;;
15681;SDS011;7941;50.966;6.978;2022-08-21T16:25:48;4.37;;;1.77;;
15681;SDS011;7941;50.966;6.978;2022-08-21T16:28:15;2.63;;;1.50;;
15681;SDS011;7941;50.966;6.978;2022-08-21T16:30:43;3.30;;;1.50;;